Time;durP1;ratioP1;P1;durP2;ratioP2;P2;SDS_P1;SDS_P2;PMS_P1;PMS_P2;Temp;Humidity;BMP_temperature;BMP_pressure;BME280_temperature;BME280_humidity;BME280_pressure;Samples;Min_cycle;Max_cycle;Signal;HPM_P1;HPM_P2
2023/08/01 00:01:33;;;;;;;4.38;4.05;;;;;;;;;;10288023;28;20486;-62
2023/08/01 00:06:31;;;;;;;4.25;3.95;;;;;;;;;;10288330;28;20489;-63
2023/08/01 00:11:29;;;;;;;4.90;4.40;;;;;;;;;;10287020;28;20081;-62
2023/08/01 00:16:28;;;;;;;5.07;4.65;;;;;;;;;;10291147;28;20463;-63
2023/08/01 00:21:27;;;;;;;5.20;4.68;;;;;;;;;;10291338;28;20080;-61
2023/08/01 00:26:25;;;;;;;4.68;4.28;;;;;;;;;;10289903;28;20290;-61
2023/08/01 00:31:24;;;;;;;5.50;4.53;;;;;;;;;;10287296;28;20077;-62
2023/08/01 00:36:22;;;;;;;5.40;5.00;;;;;;;;;;10290170;28;20072;-62
2023/08/01 00:41:22;;;;;;;5.40;5.00;;;;;;;;;;10286997;28;20079;-62
2023/08/01 00:46:20;;;;;;;4.78;4.38;;;;;;;;;;10287796;28;20064;-62
2023/08/01 00:51:19;;;;;;;5.22;4.80;;;;;;;;;;10287497;28;20080;-62
2023/08/01 00:56:17;;;;;;;6.07;5.47;;;;;;;;;;10290556;28;20076;-62
2023/08/01 01:01:17;;;;;;;5.75;4.97;;;;;;;;;;10288683;28;20067;-62
2023/08/01 01:06:18;;;;;;;4.97;4.57;;;;;;;;;;10291027;28;20417;-63
2023/08/01 01:11:17;;;;;;;6.72;5.20;;;;;;;;;;10290974;28;20072;-62
2023/08/01 01:16:17;;;;;;;9.02;5.32;;;;;;;;;;10289978;28;20148;-62
2023/08/01 01:21:16;;;;;;;5.82;5.28;;;;;;;;;;10289908;28;20060;-62
2023/08/01 01:26:16;;;;;;;5.22;4.80;;;;;;;;;;10283055;28;20072;-60
2023/08/01 01:31:16;;;;;;;12.00;5.88;;;;;;;;;;10288957;28;20068;-61
2023/08/01 01:36:14;;;;;;;6.22;5.63;;;;;;;;;;10288699;28;20072;-62
2023/08/01 01:41:14;;;;;;;6.32;5.72;;;;;;;;;;10284843;28;20095;-62
2023/08/01 01:46:14;;;;;;;8.45;5.70;;;;;;;;;;10272069;28;20071;-61
2023/08/01 01:51:12;;;;;;;5.55;5.05;;;;;;;;;;10287943;28;20079;-62
2023/08/01 01:56:11;;;;;;;6.35;5.75;;;;;;;;;;10285277;28;20072;-61
2023/08/01 02:01:10;;;;;;;7.10;5.57;;;;;;;;;;10280497;28;20083;-62
2023/08/01 02:06:09;;;;;;;7.57;5.10;;;;;;;;;;10294494;28;20558;-62
2023/08/01 02:11:07;;;;;;;5.95;5.45;;;;;;;;;;10288162;28;20606;-62
2023/08/01 02:16:06;;;;;;;6.05;5.55;;;;;;;;;;10287893;28;20095;-61
2023/08/01 02:21:05;;;;;;;7.45;5.75;;;;;;;;;;10287137;28;20087;-61
2023/08/01 02:26:04;;;;;;;6.15;5.65;;;;;;;;;;10284448;28;20502;-61
2023/08/01 02:31:02;;;;;;;17.35;7.57;;;;;;;;;;10289449;28;20494;-62
2023/08/01 02:36:00;;;;;;;9.23;6.07;;;;;;;;;;10285650;28;20077;-62
2023/08/01 02:41:00;;;;;;;16.77;7.03;;;;;;;;;;10288716;28;20068;-61
2023/08/01 02:46:00;;;;;;;9.27;6.80;;;;;;;;;;10289357;28;20526;-61
2023/08/01 02:50:58;;;;;;;7.38;6.43;;;;;;;;;;10285552;28;20068;-62
2023/08/01 02:55:56;;;;;;;6.90;6.20;;;;;;;;;;10289991;28;20075;-61
2023/08/01 03:00:56;;;;;;;6.90;5.70;;;;;;;;;;10294987;28;20076;-62
2023/08/01 03:05:54;;;;;;;8.55;7.50;;;;;;;;;;10294474;28;20064;-62
2023/08/01 03:10:52;;;;;;;8.63;6.53;;;;;;;;;;10296201;28;20095;-62
2023/08/01 03:15:50;;;;;;;14.30;6.57;;;;;;;;;;10291574;28;20076;-62
2023/08/01 03:20:51;;;;;;;7.45;6.72;;;;;;;;;;10295678;28;20068;-63
2023/08/01 03:25:49;;;;;;;9.95;6.88;;;;;;;;;;10294794;28;20068;-62
2023/08/01 03:30:50;;;;;;;7.07;6.38;;;;;;;;;;10293827;28;20068;-63
2023/08/01 03:35:50;;;;;;;7.10;6.50;;;;;;;;;;10295111;28;20072;-63
2023/08/01 03:40:49;;;;;;;7.38;6.78;;;;;;;;;;10295765;28;20072;-63
2023/08/01 03:45:48;;;;;;;6.57;5.97;;;;;;;;;;10290881;28;20079;-62
2023/08/01 03:50:46;;;;;;;7.10;6.50;;;;;;;;;;10293764;28;20533;-62
2023/08/01 03:55:47;;;;;;;8.02;6.90;;;;;;;;;;10293833;28;20075;-62
2023/08/01 04:00:45;;;;;;;7.95;7.25;;;;;;;;;;10282371;28;20465;-63
2023/08/01 04:05:44;;;;;;;8.00;7.28;;;;;;;;;;10284275;28;20068;-62
2023/08/01 04:10:42;;;;;;;7.40;6.70;;;;;;;;;;10287758;28;20091;-62
2023/08/01 04:15:41;;;;;;;9.63;7.85;;;;;;;;;;10290640;28;20510;-62
2023/08/01 04:20:40;;;;;;;8.02;7.25;;;;;;;;;;10287626;28;20088;-62
2023/08/01 04:25:38;;;;;;;9.00;7.50;;;;;;;;;;10273463;28;20057;-62
2023/08/01 04:30:38;;;;;;;8.15;7.53;;;;;;;;;;10289054;28;20082;-63
2023/08/01 04:35:37;;;;;;;9.13;8.40;;;;;;;;;;10283294;28;20071;-62
2023/08/01 04:40:35;;;;;;;9.77;8.95;;;;;;;;;;10288399;28;20072;-63
2023/08/01 04:45:34;;;;;;;9.32;8.43;;;;;;;;;;10279342;28;20482;-63
2023/08/01 04:50:32;;;;;;;10.68;9.77;;;;;;;;;;10271894;28;20506;-62
2023/08/01 04:55:31;;;;;;;8.80;8.10;;;;;;;;;;10239902;28;20121;-62
2023/08/01 05:00:30;;;;;;;38.05;34.80;;;;;;;;;;10274347;28;20071;-63
2023/08/01 05:05:28;;;;;;;12.23;9.30;;;;;;;;;;10288964;28;20075;-63
2023/08/01 05:10:26;;;;;;;12.07;10.20;;;;;;;;;;10287514;28;20065;-63
2023/08/01 05:15:26;;;;;;;9.73;8.82;;;;;;;;;;10291600;28;20061;-62
2023/08/01 05:20:30;;;;;;;10.98;9.93;;;;;;;;;;10277009;28;20065;-62
2023/08/01 05:25:29;;;;;;;18.83;17.08;;;;;;;;;;10279299;28;20569;-63
2023/08/01 05:30:28;;;;;;;11.32;10.13;;;;;;;;;;10291171;28;20509;-63
2023/08/01 05:35:26;;;;;;;12.23;11.23;;;;;;;;;;10289459;28;20072;-63
2023/08/01 05:40:25;;;;;;;12.95;11.65;;;;;;;;;;10292665;28;20079;-63
2023/08/01 05:45:23;;;;;;;14.50;12.35;;;;;;;;;;10285674;28;20482;-63
2023/08/01 05:50:22;;;;;;;30.65;27.60;;;;;;;;;;10288606;28;20072;-63
2023/08/01 05:55:21;;;;;;;20.05;18.40;;;;;;;;;;10292338;28;20064;-62
2023/08/01 06:00:21;;;;;;;11.45;10.45;;;;;;;;;;10291075;28;20499;-62
2023/08/01 06:05:19;;;;;;;11.60;10.35;;;;;;;;;;10293627;28;20079;-62
2023/08/01 06:10:19;;;;;;;11.77;10.77;;;;;;;;;;10291671;28;20068;-62
2023/08/01 06:15:17;;;;;;;11.57;10.57;;;;;;;;;;10290949;28;20060;-62
2023/08/01 06:20:15;;;;;;;10.88;9.93;;;;;;;;;;10288068;28;20099;-63
2023/08/01 06:25:14;;;;;;;11.77;10.60;;;;;;;;;;10290788;28;20485;-63
2023/08/01 06:30:13;;;;;;;9.40;8.68;;;;;;;;;;10290893;28;20076;-62
2023/08/01 06:35:12;;;;;;;11.82;10.68;;;;;;;;;;10290048;28;20170;-62
2023/08/01 06:40:10;;;;;;;9.40;8.63;;;;;;;;;;10290255;28;20079;-62
2023/08/01 06:45:08;;;;;;;11.63;10.63;;;;;;;;;;10291958;28;20068;-63
2023/08/01 06:50:08;;;;;;;10.70;9.70;;;;;;;;;;10290587;28;20087;-62
2023/08/01 06:55:07;;;;;;;11.10;9.88;;;;;;;;;;10291522;28;20079;-63
2023/08/01 07:00:06;;;;;;;17.15;10.80;;;;;;;;;;10288678;28;20075;-62
2023/08/01 07:05:05;;;;;;;13.20;11.23;;;;;;;;;;10288769;28;20068;-62
2023/08/01 07:10:06;;;;;;;13.35;12.15;;;;;;;;;;10291564;28;20476;-62
2023/08/01 07:15:05;;;;;;;10.85;9.90;;;;;;;;;;10290548;28;20103;-62
2023/08/01 07:20:03;;;;;;;13.05;10.50;;;;;;;;;;10290126;28;20478;-62
2023/08/01 07:25:01;;;;;;;10.15;9.35;;;;;;;;;;10289782;28;20077;-62
2023/08/01 07:30:01;;;;;;;10.98;9.15;;;;;;;;;;10288843;28;20069;-63
2023/08/01 07:35:00;;;;;;;10.13;9.30;;;;;;;;;;10289923;28;20075;-61
2023/08/01 07:39:58;;;;;;;10.50;9.55;;;;;;;;;;10290597;28;20077;-62
2023/08/01 07:44:56;;;;;;;9.52;8.68;;;;;;;;;;10294312;28;20063;-62
2023/08/01 07:49:56;;;;;;;10.20;9.30;;;;;;;;;;10297464;28;20068;-61
2023/08/01 07:54:57;;;;;;;8.25;7.45;;;;;;;;;;10296282;28;20522;-62
2023/08/01 07:59:56;;;;;;;12.57;7.30;;;;;;;;;;10296870;28;20076;-61
2023/08/01 08:04:56;;;;;;;21.73;19.83;;;;;;;;;;10295732;28;20093;-61
2023/08/01 08:09:55;;;;;;;10.98;9.75;;;;;;;;;;10292912;28;20478;-62
2023/08/01 08:14:53;;;;;;;9.48;7.05;;;;;;;;;;10296256;28;20056;-62
2023/08/01 08:19:51;;;;;;;6.95;6.35;;;;;;;;;;10295684;28;20287;-63
2023/08/01 08:24:53;;;;;;;8.73;7.20;;;;;;;;;;10296465;28;20088;-63
2023/08/01 08:29:51;;;;;;;10.02;8.85;;;;;;;;;;10295506;28;20490;-63
2023/08/01 08:34:49;;;;;;;9.00;8.20;;;;;;;;;;10292284;28;20457;-62
2023/08/01 08:39:48;;;;;;;13.63;12.23;;;;;;;;;;10295289;28;20570;-61
2023/08/01 08:44:50;;;;;;;9.27;8.48;;;;;;;;;;10293407;28;20064;-62
2023/08/01 08:49:49;;;;;;;10.48;9.50;;;;;;;;;;10293872;28;20446;-63
2023/08/01 08:54:48;;;;;;;10.38;8.00;;;;;;;;;;10294595;28;20072;-62
2023/08/01 08:59:47;;;;;;;8.82;8.02;;;;;;;;;;10291711;28;20960;-62
2023/08/01 09:04:46;;;;;;;17.08;13.27;;;;;;;;;;10294326;28;20069;-62
2023/08/01 09:09:44;;;;;;;8.48;7.60;;;;;;;;;;10294586;28;20517;-62
2023/08/01 09:14:43;;;;;;;9.52;7.57;;;;;;;;;;10292560;28;20083;-62
2023/08/01 09:19:42;;;;;;;9.35;7.65;;;;;;;;;;10293109;28;20095;-62
2023/08/01 09:24:51;;;;;;;7.85;6.78;;;;;;;;;;10290300;28;20064;-61
2023/08/01 09:29:49;;;;;;;7.60;6.72;;;;;;;;;;10292259;28;20065;-62
2023/08/01 09:34:58;;;;;;;7.53;6.13;;;;;;;;;;10291336;28;20530;-62
2023/08/01 09:39:57;;;;;;;8.65;6.30;;;;;;;;;;10292258;28;20502;-62
2023/08/01 09:44:58;;;;;;;7.35;6.00;;;;;;;;;;10291515;28;20083;-62
2023/08/01 09:49:58;;;;;;;7.70;5.88;;;;;;;;;;10292588;28;20076;-62
2023/08/01 09:54:56;;;;;;;6.28;5.68;;;;;;;;;;10291124;28;20493;-62
2023/08/01 09:59:54;;;;;;;8.13;6.53;;;;;;;;;;10290133;28;20556;-62
2023/08/01 10:04:53;;;;;;;7.30;5.40;;;;;;;;;;10290783;28;20071;-61
2023/08/01 10:09:54;;;;;;;5.55;5.05;;;;;;;;;;10290486;28;20068;-63
2023/08/01 10:14:53;;;;;;;5.78;5.22;;;;;;;;;;10292123;28;20072;-61
2023/08/01 10:19:51;;;;;;;5.45;5.05;;;;;;;;;;10290060;28;20076;-62
2023/08/01 10:24:50;;;;;;;6.22;5.63;;;;;;;;;;10289432;28;20077;-62
2023/08/01 10:29:58;;;;;;;6.13;5.38;;;;;;;;;;10290749;28;20135;-62
2023/08/01 10:34:56;;;;;;;5.90;4.88;;;;;;;;;;10288337;28;20536;-62
2023/08/01 10:39:58;;;;;;;6.28;5.68;;;;;;;;;;10289812;28;20486;-61
2023/08/01 10:44:58;;;;;;;5.65;5.00;;;;;;;;;;10290262;28;20068;-62
2023/08/01 10:49:56;;;;;;;6.32;5.72;;;;;;;;;;10287880;28;20076;-62
2023/08/01 10:54:58;;;;;;;5.50;4.95;;;;;;;;;;10290848;28;20076;-62
2023/08/01 10:59:58;;;;;;;7.25;5.15;;;;;;;;;;10290189;28;20080;-62
2023/08/01 11:04:57;;;;;;;6.10;4.97;;;;;;;;;;10289346;28;20084;-62
2023/08/01 11:10:08;;;;;;;6.05;5.32;;;;;;;;;;10290891;28;20075;-62
2023/08/01 11:15:09;;;;;;;5.55;5.05;;;;;;;;;;10287059;28;20064;-63
2023/08/01 11:20:08;;;;;;;6.70;5.72;;;;;;;;;;10296553;28;20470;-63
2023/08/01 11:25:06;;;;;;;5.47;4.40;;;;;;;;;;10298404;28;20103;-63
2023/08/01 11:30:05;;;;;;;6.75;3.75;;;;;;;;;;10296837;28;20469;-63
2023/08/01 11:35:05;;;;;;;7.32;4.88;;;;;;;;;;10298479;28;20083;-63
2023/08/01 11:40:04;;;;;;;8.27;4.57;;;;;;;;;;10297378;28;20088;-63
2023/08/01 11:45:08;;;;;;;4.82;4.40;;;;;;;;;;10295589;28;20514;-63
2023/08/01 11:50:08;;;;;;;5.20;4.43;;;;;;;;;;10295840;28;20088;-63
2023/08/01 11:55:07;;;;;;;11.40;4.57;;;;;;;;;;10296999;28;20088;-63
2023/08/01 12:00:06;;;;;;;5.00;4.03;;;;;;;;;;10296224;28;20083;-63
2023/08/01 12:05:08;;;;;;;;;;;;;;;;;;10302603;28;20533;-63
2023/08/01 12:10:08;;;;;;;4.80;4.32;;;;;;;;;;10293744;28;19956;-62
2023/08/01 12:15:07;;;;;;;4.55;4.15;;;;;;;;;;10295364;28;20587;-62
2023/08/01 12:20:06;;;;;;;4.80;3.92;;;;;;;;;;10296037;28;20076;-63
2023/08/01 12:25:05;;;;;;;5.95;4.63;;;;;;;;;;10294960;28;20116;-63
2023/08/01 12:30:05;;;;;;;6.57;4.78;;;;;;;;;;10294203;28;20080;-63
2023/08/01 12:35:04;;;;;;;6.05;5.45;;;;;;;;;;10292792;28;20107;-63
2023/08/01 12:40:03;;;;;;;5.35;4.15;;;;;;;;;;10292391;28;20482;-63
2023/08/01 12:45:03;;;;;;;4.55;4.13;;;;;;;;;;10296351;28;20072;-63
2023/08/01 12:50:03;;;;;;;4.45;3.95;;;;;;;;;;10294079;28;20075;-63
2023/08/01 12:55:01;;;;;;;7.80;4.20;;;;;;;;;;10293380;28;20505;-62
2023/08/01 12:59:59;;;;;;;7.75;4.22;;;;;;;;;;10294309;28;20076;-62
2023/08/01 13:04:58;;;;;;;4.25;3.80;;;;;;;;;;10292453;28;20499;-61
2023/08/01 13:09:57;;;;;;;3.88;3.50;;;;;;;;;;10292775;28;20064;-61
2023/08/01 13:14:55;;;;;;;3.72;3.17;;;;;;;;;;10293481;28;20077;-62
2023/08/01 13:20:12;;;;;;;6.50;4.72;;;;;;;;;;10292694;28;20103;-62
2023/08/01 13:25:13;;;;;;;6.00;4.13;;;;;;;;;;10292168;28;20507;-62
2023/08/01 13:30:14;;;;;;;4.75;4.15;;;;;;;;;;10291531;28;20072;-62
2023/08/01 13:35:12;;;;;;;5.50;4.32;;;;;;;;;;10290463;28;20174;-63
2023/08/01 13:40:13;;;;;;;6.55;5.00;;;;;;;;;;10291219;28;20516;-61
2023/08/01 13:45:11;;;;;;;7.03;4.25;;;;;;;;;;10291861;28;20072;-63
2023/08/01 13:50:10;;;;;;;6.78;5.03;;;;;;;;;;10292495;28;20536;-63
2023/08/01 13:55:09;;;;;;;4.72;4.22;;;;;;;;;;10292453;28;20080;-62
2023/08/01 14:00:11;;;;;;;7.30;4.28;;;;;;;;;;10290758;28;20506;-63
2023/08/01 14:05:15;;;;;;;5.35;4.35;;;;;;;;;;10290416;28;20079;-62
2023/08/01 14:10:14;;;;;;;6.28;3.60;;;;;;;;;;10292776;28;20068;-62
2023/08/01 14:15:14;;;;;;;4.10;3.70;;;;;;;;;;10288818;28;20061;-62
2023/08/01 14:20:15;;;;;;;13.05;11.77;;;;;;;;;;10288377;28;20084;-62
2023/08/01 14:25:15;;;;;;;6.70;3.88;;;;;;;;;;10289019;28;20553;-62
2023/08/01 14:30:15;;;;;;;4.25;3.30;;;;;;;;;;10290583;28;20522;-62
2023/08/01 14:35:13;;;;;;;4.88;3.75;;;;;;;;;;10290744;28;20644;-62
2023/08/01 14:40:12;;;;;;;4.13;3.63;;;;;;;;;;10290472;28;20071;-62
2023/08/01 14:45:12;;;;;;;5.03;4.53;;;;;;;;;;10292919;28;20075;-62
2023/08/01 14:50:12;;;;;;;7.40;3.97;;;;;;;;;;10290100;28;20556;-63
2023/08/01 14:55:10;;;;;;;8.85;4.10;;;;;;;;;;10298305;28;20464;-62
2023/08/01 15:00:10;;;;;;;6.40;3.53;;;;;;;;;;10299096;28;20079;-63
2023/08/01 15:05:09;;;;;;;4.90;3.65;;;;;;;;;;10299730;28;20083;-62
2023/08/01 15:10:09;;;;;;;4.55;3.15;;;;;;;;;;10297787;28;20565;-62
2023/08/01 15:15:08;;;;;;;4.18;3.50;;;;;;;;;;10297589;28;20083;-62
2023/08/01 15:20:06;;;;;;;4.30;3.70;;;;;;;;;;10298757;28;20072;-64
2023/08/01 15:25:06;;;;;;;4.05;2.60;;;;;;;;;;10295315;28;20087;-62
2023/08/01 15:30:06;;;;;;;6.07;3.05;;;;;;;;;;10295865;28;20076;-61
2023/08/01 15:35:05;;;;;;;4.07;3.67;;;;;;;;;;10297652;28;20083;-61
2023/08/01 15:40:03;;;;;;;4.57;3.17;;;;;;;;;;10296902;28;20073;-62
2023/08/01 15:45:02;;;;;;;6.22;3.95;;;;;;;;;;10296635;28;20071;-61
2023/08/01 15:50:01;;;;;;;4.78;4.38;;;;;;;;;;10298807;28;20080;-62
2023/08/01 15:54:59;;;;;;;4.32;3.90;;;;;;;;;;10294279;28;20091;-62
2023/08/01 15:59:58;;;;;;;4.15;3.38;;;;;;;;;;10296391;28;20075;-62
2023/08/01 16:04:56;;;;;;;4.80;3.65;;;;;;;;;;10293992;28;20072;-62
2023/08/01 16:09:55;;;;;;;19.80;17.77;;;;;;;;;;10295947;28;20079;-62
2023/08/01 16:14:54;;;;;;;4.40;3.25;;;;;;;;;;10292507;28;20072;-63
2023/08/01 16:19:52;;;;;;;5.35;4.85;;;;;;;;;;10294702;28;20067;-62
2023/08/01 16:24:51;;;;;;;6.13;5.60;;;;;;;;;;10296085;28;20103;-61
2023/08/01 16:29:50;;;;;;;10.30;9.27;;;;;;;;;;10295645;28;20076;-62
2023/08/01 16:34:49;;;;;;;4.15;2.60;;;;;;;;;;10274023;28;20079;-62
2023/08/01 16:39:47;;;;;;;14.35;9.30;;;;;;;;;;10292243;28;20076;-62
2023/08/01 16:44:45;;;;;;;5.53;4.22;;;;;;;;;;10294452;28;20077;-62
2023/08/01 16:49:47;;;;;;;6.90;6.00;;;;;;;;;;10295820;28;20069;-62
2023/08/01 16:54:45;;;;;;;6.10;5.50;;;;;;;;;;10293916;28;20060;-61
2023/08/01 16:59:44;;;;;;;4.40;4.00;;;;;;;;;;10293975;28;20502;-62
2023/08/01 17:04:42;;;;;;;7.18;4.47;;;;;;;;;;10291448;28;20079;-63
2023/08/01 17:09:41;;;;;;;8.98;6.28;;;;;;;;;;10293554;28;20068;-62
2023/08/01 17:14:40;;;;;;;4.50;4.10;;;;;;;;;;10293344;28;20072;-61
2023/08/01 17:19:38;;;;;;;6.15;4.32;;;;;;;;;;10293637;28;20072;-62
2023/08/01 17:24:36;;;;;;;5.97;4.53;;;;;;;;;;10291510;28;20490;-61
2023/08/01 17:29:36;;;;;;;4.70;4.30;;;;;;;;;;10290015;28;20064;-62
2023/08/01 17:34:34;;;;;;;6.70;4.50;;;;;;;;;;10293730;28;20513;-61
2023/08/01 17:39:33;;;;;;;5.25;3.13;;;;;;;;;;10293306;28;20506;-62
2023/08/01 17:44:31;;;;;;;4.90;3.15;;;;;;;;;;10292055;28;20072;-62
2023/08/01 17:49:37;;;;;;;6.40;4.13;;;;;;;;;;10291898;28;20068;-61
2023/08/01 17:54:35;;;;;;;4.50;3.90;;;;;;;;;;10293462;28;20498;-61
2023/08/01 17:59:35;;;;;;;3.03;2.80;;;;;;;;;;10291411;28;20080;-62
2023/08/01 18:04:34;;;;;;;5.15;4.57;;;;;;;;;;10289567;28;20076;-62
2023/08/01 18:09:34;;;;;;;3.58;3.28;;;;;;;;;;10293875;28;20087;-62
2023/08/01 18:14:33;;;;;;;5.30;3.35;;;;;;;;;;10292605;28;20088;-61
2023/08/01 18:19:34;;;;;;;5.15;4.72;;;;;;;;;;10292286;28;20076;-62
2023/08/01 18:24:33;;;;;;;5.30;4.80;;;;;;;;;;10290628;28;20087;-62
2023/08/01 18:29:32;;;;;;;5.80;4.05;;;;;;;;;;10286719;28;20455;-63
2023/08/01 18:34:30;;;;;;;2.88;2.63;;;;;;;;;;10286051;28;20076;-61
2023/08/01 18:39:28;;;;;;;5.00;3.58;;;;;;;;;;10290405;28;20079;-63
2023/08/01 18:44:28;;;;;;;12.70;11.60;;;;;;;;;;10290804;28;20073;-62
2023/08/01 18:49:28;;;;;;;50.95;46.88;;;;;;;;;;10289496;28;20079;-61
2023/08/01 18:54:26;;;;;;;62.17;56.90;;;;;;;;;;10290277;28;20088;-61
2023/08/01 18:59:24;;;;;;;45.05;41.08;;;;;;;;;;10288113;28;20079;-62
2023/08/01 19:04:24;;;;;;;13.90;12.73;;;;;;;;;;10289076;28;20092;-63
2023/08/01 19:09:22;;;;;;;6.55;5.43;;;;;;;;;;10290543;28;20079;-62
2023/08/01 19:14:20;;;;;;;2.60;2.40;;;;;;;;;;10290505;28;20075;-62
2023/08/01 19:19:19;;;;;;;2.88;2.58;;;;;;;;;;10291365;28;20068;-62
2023/08/01 19:24:19;;;;;;;4.88;3.53;;;;;;;;;;10288504;28;20081;-62
2023/08/01 19:29:18;;;;;;;7.30;3.40;;;;;;;;;;10287995;28;20083;-62
2023/08/01 19:34:16;;;;;;;2.90;2.42;;;;;;;;;;10291251;28;20091;-62
2023/08/01 19:39:14;;;;;;;3.65;3.35;;;;;;;;;;10293931;28;20072;-62
2023/08/01 19:44:14;;;;;;;3.10;2.80;;;;;;;;;;10293573;28;20518;-62
2023/08/01 19:49:13;;;;;;;2.67;2.47;;;;;;;;;;10296316;28;20064;-61
2023/08/01 19:54:11;;;;;;;2.33;2.13;;;;;;;;;;10297710;28;20064;-61
2023/08/01 19:59:10;;;;;;;2.17;1.98;;;;;;;;;;10297653;28;20076;-62
2023/08/01 20:04:10;;;;;;;2.53;2.33;;;;;;;;;;10295954;28;20072;-61
2023/08/01 20:09:09;;;;;;;2.53;2.33;;;;;;;;;;10293745;28;20580;-61
2023/08/01 20:14:07;;;;;;;2.00;1.90;;;;;;;;;;10295026;28;20533;-61
2023/08/01 20:19:11;;;;;;;4.38;2.28;;;;;;;;;;10294012;28;20088;-62
2023/08/01 20:24:09;;;;;;;2.47;2.28;;;;;;;;;;10294115;28;20092;-62
2023/08/01 20:29:07;;;;;;;2.30;2.10;;;;;;;;;;10295568;28;20068;-61
2023/08/01 20:34:07;;;;;;;2.92;2.25;;;;;;;;;;10294226;28;20079;-61
2023/08/01 20:39:08;;;;;;;5.63;2.40;;;;;;;;;;10294000;28;20072;-62
2023/08/01 20:44:06;;;;;;;4.03;2.28;;;;;;;;;;10292903;28;20584;-62
2023/08/01 20:49:04;;;;;;;4.32;2.78;;;;;;;;;;10293205;28;20505;-61
2023/08/01 20:54:03;;;;;;;3.40;3.10;;;;;;;;;;10296012;28;20083;-61
2023/08/01 20:59:02;;;;;;;5.68;4.40;;;;;;;;;;10295288;28;20090;-63
2023/08/01 21:04:01;;;;;;;4.45;3.72;;;;;;;;;;10290709;28;20076;-61
2023/08/01 21:08:59;;;;;;;3.63;3.33;;;;;;;;;;10296190;28;20072;-61
2023/08/01 21:14:02;;;;;;;;;;;;;;;;;;10295416;28;20465;-61
2023/08/01 21:19:02;;;;;;;3.22;2.35;;;;;;;;;;10294333;28;19956;-61
2023/08/01 21:24:00;;;;;;;5.50;2.70;;;;;;;;;;10292871;28;20084;-62
2023/08/01 21:28:58;;;;;;;3.38;3.08;;;;;;;;;;10292046;28;20084;-62
2023/08/01 21:33:56;;;;;;;6.03;2.88;;;;;;;;;;10293377;28;20102;-61
2023/08/01 21:38:56;;;;;;;2.90;2.60;;;;;;;;;;10292551;28;20075;-62
2023/08/01 21:43:54;;;;;;;3.03;2.83;;;;;;;;;;10292624;28;20516;-62
2023/08/01 21:48:52;;;;;;;3.00;2.70;;;;;;;;;;10291347;28;20064;-62
2023/08/01 21:53:51;;;;;;;2.92;2.72;;;;;;;;;;10289133;28;20450;-62
2023/08/01 21:58:50;;;;;;;3.50;3.20;;;;;;;;;;10292001;28;20069;-62
2023/08/01 22:03:49;;;;;;;2.75;2.55;;;;;;;;;;10293426;28;20463;-62
2023/08/01 22:08:47;;;;;;;5.70;3.53;;;;;;;;;;10292490;28;20468;-62
2023/08/01 22:13:45;;;;;;;5.30;3.50;;;;;;;;;;10288900;28;20170;-62
2023/08/01 22:18:45;;;;;;;4.45;3.38;;;;;;;;;;10289292;28;20076;-62
2023/08/01 22:23:44;;;;;;;4.70;3.20;;;;;;;;;;10291062;28;20084;-62
2023/08/01 22:28:42;;;;;;;4.97;3.47;;;;;;;;;;10290857;28;20518;-62
2023/08/01 22:33:40;;;;;;;4.35;3.88;;;;;;;;;;10289565;28;20071;-62
2023/08/01 22:38:39;;;;;;;4.25;3.85;;;;;;;;;;10289002;28;20506;-62
2023/08/01 22:43:38;;;;;;;6.65;3.60;;;;;;;;;;10288848;28;20087;-62
2023/08/01 22:48:36;;;;;;;3.58;3.35;;;;;;;;;;10291977;28;20076;-62
2023/08/01 22:53:34;;;;;;;4.07;3.75;;;;;;;;;;10289060;28;20068;-62
2023/08/01 22:58:34;;;;;;;3.65;3.40;;;;;;;;;;10288302;28;20080;-61
2023/08/01 23:03:32;;;;;;;5.05;3.78;;;;;;;;;;10287534;28;20088;-62
2023/08/01 23:08:31;;;;;;;3.65;3.33;;;;;;;;;;10290364;28;20065;-63
2023/08/01 23:13:30;;;;;;;3.92;3.55;;;;;;;;;;10295683;28;20077;-61
2023/08/01 23:18:29;;;;;;;3.75;3.45;;;;;;;;;;10296615;28;20037;-61
2023/08/01 23:23:28;;;;;;;5.80;4.07;;;;;;;;;;10296816;28;20076;-62
2023/08/01 23:28:26;;;;;;;4.03;3.63;;;;;;;;;;10298184;28;20071;-61
2023/08/01 23:33:24;;;;;;;3.65;3.35;;;;;;;;;;10298175;28;20075;-61
2023/08/01 23:38:24;;;;;;;3.70;3.40;;;;;;;;;;10297744;28;20521;-61
2023/08/01 23:43:22;;;;;;;3.25;3.05;;;;;;;;;;10298319;28;20076;-61
2023/08/01 23:48:21;;;;;;;4.72;3.80;;;;;;;;;;10294620;28;20080;-61
2023/08/01 23:53:20;;;;;;;3.97;3.58;;;;;;;;;;10295287;28;20069;-62
2023/08/01 23:58:20;;;;;;;3.63;3.33;;;;;;;;;;10296561;28;20085;-63
